Time;durP1;ratioP1;P1;durP2;ratioP2;P2;SDS_P1;SDS_P2;PMS_P1;PMS_P2;Temp;Humidity;BMP_temperature;BMP_pressure;BME280_temperature;BME280_humidity;BME280_pressure;Samples;Min_cycle;Max_cycle;Signal;HPM_P1;HPM_P2
2023/12/04 00:01:56;;;;;;;17.90;10.98;;;;;;;16.44;45.04;101319.78;5022208;28;20076;-37
2023/12/04 00:04:23;;;;;;;16.50;10.55;;;;;;;16.47;44.77;101318.63;5021423;28;20115;-37
2023/12/04 00:06:50;;;;;;;20.00;11.63;;;;;;;16.52;44.66;101319.09;5022918;28;20467;-37
2023/12/04 00:09:17;;;;;;;15.77;10.30;;;;;;;16.56;45.12;101306.28;5024006;28;20500;-38
2023/12/04 00:11:43;;;;;;;19.27;11.50;;;;;;;16.59;44.90;101312.22;5021569;28;20080;-37
2023/12/04 00:14:10;;;;;;;18.27;11.65;;;;;;;16.62;45.40;101303.94;5027358;28;20532;-37
2023/12/04 00:16:36;;;;;;;15.43;11.00;;;;;;;16.64;44.91;101307.31;5023875;28;20133;-37
2023/12/04 00:19:03;;;;;;;16.48;11.05;;;;;;;16.66;44.79;101315.22;5018733;28;20049;-37
2023/12/04 00:21:30;;;;;;;14.63;9.93;;;;;;;16.64;45.25;101301.13;5024269;28;20421;-37
2023/12/04 00:23:56;;;;;;;15.43;10.07;;;;;;;16.63;45.36;101294.91;5021656;28;20124;-38
2023/12/04 00:26:23;;;;;;;16.85;10.68;;;;;;;16.61;44.67;101304.09;5025567;28;20089;-37
2023/12/04 00:28:50;;;;;;;14.70;9.93;;;;;;;16.58;44.95;101297.16;5023264;28;20448;-37
2023/12/04 00:31:17;;;;;;;14.50;9.45;;;;;;;16.55;44.29;101305.44;5026526;28;20053;-37
2023/12/04 00:33:43;;;;;;;13.85;9.63;;;;;;;16.51;44.77;101298.66;5017873;28;20049;-37
2023/12/04 00:36:10;;;;;;;14.85;9.77;;;;;;;16.49;44.84;101300.63;5021809;28;20060;-37
2023/12/04 00:38:37;;;;;;;14.15;9.63;;;;;;;16.46;44.69;101300.91;5025215;28;20061;-37
2023/12/04 00:41:03;;;;;;;13.88;8.90;;;;;;;16.43;44.61;101303.81;5023897;28;20128;-37
2023/12/04 00:43:30;;;;;;;12.52;8.27;;;;;;;16.41;44.51;101308.47;5025485;28;20444;-37
2023/12/04 00:45:57;;;;;;;13.70;8.90;;;;;;;16.38;44.19;101298.03;5026192;28;20050;-37
2023/12/04 00:48:24;;;;;;;12.32;8.25;;;;;;;16.35;45.41;101292.94;5021440;28;20085;-37
2023/12/04 00:50:51;;;;;;;13.90;8.18;;;;;;;16.33;45.15;101300.25;5023855;28;20497;-37
2023/12/04 00:53:18;;;;;;;12.25;8.82;;;;;;;16.29;45.25;101292.50;5023448;28;20132;-36
2023/12/04 00:55:44;;;;;;;13.20;8.38;;;;;;;16.25;44.69;101296.41;5025992;28;20141;-37
2023/12/04 00:58:11;;;;;;;12.57;8.52;;;;;;;16.25;45.00;101287.53;5025094;28;20057;-37
2023/12/04 01:00:38;;;;;;;13.48;8.80;;;;;;;16.25;44.69;101276.84;5023653;28;20124;-37
2023/12/04 01:03:04;;;;;;;14.05;8.88;;;;;;;16.26;44.96;101284.72;5029788;28;20057;-37
2023/12/04 01:05:31;;;;;;;13.93;8.20;;;;;;;16.28;45.35;101273.88;5030653;28;20145;-37
2023/12/04 01:07:58;;;;;;;12.52;8.60;;;;;;;16.33;45.00;101273.50;5017699;28;20138;-37
2023/12/04 01:10:24;;;;;;;12.50;8.52;;;;;;;16.35;44.87;101267.03;5016822;28;20103;-37
2023/12/04 01:12:51;;;;;;;13.27;8.32;;;;;;;16.39;45.28;101263.09;5022840;28;20057;-37
2023/12/04 01:15:17;;;;;;;12.93;8.07;;;;;;;16.43;45.00;101256.50;5019140;28;20049;-37
2023/12/04 01:17:44;;;;;;;10.25;7.47;;;;;;;16.47;45.54;101259.78;5018729;28;20057;-37
2023/12/04 01:20:11;;;;;;;11.35;7.95;;;;;;;16.50;45.30;101256.84;5018442;28;20057;-37
2023/12/04 01:22:38;;;;;;;10.00;7.10;;;;;;;16.52;45.31;101258.41;5020089;28;20069;-37
2023/12/04 01:25:05;;;;;;;10.40;7.47;;;;;;;16.53;45.63;101249.41;5025565;28;20364;-37
2023/12/04 01:27:31;;;;;;;13.88;7.63;;;;;;;16.53;45.29;101248.56;5026418;28;20045;-37
2023/12/04 01:29:58;;;;;;;10.48;7.00;;;;;;;16.51;45.78;101248.66;5024931;28;20587;-37
2023/12/04 01:32:25;;;;;;;11.13;7.43;;;;;;;16.50;45.33;101249.66;5020613;28;20091;-37
2023/12/04 01:34:52;;;;;;;10.32;7.07;;;;;;;16.49;45.98;101252.47;5022853;28;20053;-37
2023/12/04 01:37:19;;;;;;;10.95;6.97;;;;;;;16.47;46.03;101249.06;5026103;28;20107;-37
2023/12/04 01:39:46;;;;;;;11.90;8.07;;;;;;;16.44;45.45;101242.19;5019076;28;20397;-37
2023/12/04 01:42:12;;;;;;;11.57;7.63;;;;;;;16.42;45.85;101244.13;5018276;28;20052;-37
2023/12/04 01:44:39;;;;;;;10.38;6.90;;;;;;;16.40;45.81;101245.22;5021495;28;20473;-37
2023/12/04 01:47:07;;;;;;;10.40;7.07;;;;;;;16.37;45.22;101237.50;5021577;28;20058;-37
2023/12/04 01:49:33;;;;;;;9.02;6.70;;;;;;;16.35;45.25;101242.94;5021482;28;20242;-37
2023/12/04 01:52:01;;;;;;;9.93;7.18;;;;;;;16.34;45.83;101248.44;5020469;28;20468;-37
2023/12/04 01:54:29;;;;;;;9.77;6.57;;;;;;;16.29;45.68;101233.66;5019859;28;20158;-38
2023/12/04 01:56:56;;;;;;;9.32;6.72;;;;;;;16.29;45.46;101224.78;5019243;28;20083;-38
2023/12/04 01:59:23;;;;;;;10.23;6.90;;;;;;;16.26;46.06;101225.03;5024078;28;20055;-38
2023/12/04 02:01:52;;;;;;;10.68;6.60;;;;;;;16.24;45.90;101222.50;5025459;28;20295;-38
2023/12/04 02:04:18;;;;;;;9.63;6.05;;;;;;;16.23;45.09;101212.75;5025334;28;20053;-38
2023/12/04 02:06:45;;;;;;;9.52;7.00;;;;;;;16.22;45.49;101203.06;5024124;28;20099;-38
2023/12/04 02:09:13;;;;;;;11.20;7.07;;;;;;;16.22;45.39;101202.22;5023234;28;20053;-38
2023/12/04 02:11:40;;;;;;;10.82;6.57;;;;;;;16.25;45.32;101202.78;5025850;28;20049;-38
2023/12/04 02:14:07;;;;;;;8.95;6.20;;;;;;;16.26;46.18;101199.13;5026495;28;20049;-38
2023/12/04 02:16:39;;;;;;;9.23;6.13;;;;;;;16.31;45.52;101196.06;5021973;28;20563;-38
2023/12/04 02:19:11;;;;;;;9.90;6.30;;;;;;;16.33;46.22;101198.63;5024943;28;20056;-38
2023/12/04 02:21:38;;;;;;;9.00;5.90;;;;;;;16.37;45.45;101187.50;5025675;28;20046;-38
2023/12/04 02:24:05;;;;;;;8.45;6.03;;;;;;;16.40;45.99;101181.91;5020193;28;20058;-38
2023/12/04 02:26:36;;;;;;;7.97;6.18;;;;;;;16.44;45.33;101183.31;5020435;28;20054;-38
2023/12/04 02:29:10;;;;;;;8.13;5.80;;;;;;;16.48;46.03;101181.19;5020484;28;20049;-38
2023/12/04 02:31:40;;;;;;;8.07;5.35;;;;;;;16.49;45.73;101175.72;5023222;28;20050;-38
2023/12/04 02:34:10;;;;;;;7.95;5.40;;;;;;;16.50;45.37;101168.53;5023619;28;20041;-38
2023/12/04 02:36:38;;;;;;;8.60;5.95;;;;;;;16.50;45.92;101166.72;5022039;28;20045;-38
2023/12/04 02:39:05;;;;;;;7.45;5.43;;;;;;;16.49;45.47;101166.84;5025145;28;20130;-38
2023/12/04 02:41:32;;;;;;;7.55;5.50;;;;;;;16.49;44.92;101164.19;5025536;28;20444;-38
2023/12/04 02:43:58;;;;;;;6.95;5.15;;;;;;;16.48;46.19;101167.81;5019129;28;20115;-38
2023/12/04 02:46:25;;;;;;;8.13;5.68;;;;;;;16.45;46.01;101152.91;5026503;28;20131;-38
2023/12/04 02:48:51;;;;;;;6.65;4.88;;;;;;;16.44;45.95;101147.66;5027621;28;20472;-38
2023/12/04 02:51:18;;;;;;;7.45;5.35;;;;;;;16.43;45.34;101146.81;5023827;28;20100;-38
2023/12/04 02:53:45;;;;;;;8.20;5.55;;;;;;;16.42;45.22;101146.97;5024960;28;20115;-38
2023/12/04 02:56:11;;;;;;;8.20;5.72;;;;;;;16.39;45.70;101147.22;5028351;28;20467;-38
2023/12/04 02:58:38;;;;;;;7.65;5.57;;;;;;;16.37;45.12;101147.38;5025149;28;20050;-38
2023/12/04 03:01:05;;;;;;;8.10;5.63;;;;;;;16.36;45.21;101136.78;5026793;28;20464;-38
2023/12/04 03:03:31;;;;;;;7.57;5.47;;;;;;;16.32;45.39;101130.88;5029474;28;20059;-38
2023/12/04 03:05:58;;;;;;;7.03;4.88;;;;;;;16.31;45.46;101129.19;5033491;28;20048;-38
2023/12/04 03:08:25;;;;;;;9.50;6.03;;;;;;;16.30;45.59;101124.81;5027086;28;20065;-38
2023/12/04 03:10:51;;;;;;;7.43;4.88;;;;;;;16.29;45.71;101118.63;5026861;28;20211;-38
2023/12/04 03:13:18;;;;;;;7.15;5.40;;;;;;;16.31;45.64;101113.13;5020851;28;20050;-38
2023/12/04 03:15:44;;;;;;;7.97;5.15;;;;;;;16.34;45.96;101112.03;5020820;28;20107;-38
2023/12/04 03:18:11;;;;;;;7.25;5.20;;;;;;;16.37;45.67;101109.09;5017513;28;20045;-38
2023/12/04 03:20:38;;;;;;;6.25;4.53;;;;;;;16.41;45.21;101110.50;5020163;28;20045;-38
2023/12/04 03:23:05;;;;;;;7.75;4.95;;;;;;;16.46;45.63;101100.22;5020689;28;20104;-38
2023/12/04 03:25:32;;;;;;;8.40;5.03;;;;;;;16.50;45.49;101096.31;5034128;28;20053;-38
2023/12/04 03:27:59;;;;;;;6.93;4.85;;;;;;;16.54;45.46;101098.56;5023692;28;20053;-38
2023/12/04 03:30:26;;;;;;;6.85;4.85;;;;;;;16.57;45.13;101089.41;5025380;28;20041;-38
2023/12/04 03:32:53;;;;;;;6.43;4.72;;;;;;;16.60;45.78;101083.78;5018579;28;20057;-38
2023/12/04 03:35:19;;;;;;;6.95;4.85;;;;;;;16.59;45.37;101079.41;5020275;28;20049;-38
2023/12/04 03:37:46;;;;;;;6.30;4.80;;;;;;;16.58;46.04;101075.06;5020951;28;20045;-38
2023/12/04 03:40:13;;;;;;;5.80;4.70;;;;;;;16.56;45.29;101082.34;5017007;28;20049;-38
2023/12/04 03:42:40;;;;;;;6.85;4.65;;;;;;;16.53;45.16;101064.78;5025784;28;20112;-38
2023/12/04 03:45:07;;;;;;;6.43;4.72;;;;;;;16.51;45.51;101069.41;5025583;28;20077;-38
2023/12/04 03:47:34;;;;;;;6.43;4.28;;;;;;;16.47;44.89;101057.28;5023637;28;20143;-38
2023/12/04 03:50:01;;;;;;;6.93;5.07;;;;;;;16.43;44.93;101058.53;5022515;28;20045;-38
2023/12/04 03:52:27;;;;;;;6.10;4.32;;;;;;;16.39;44.73;101051.78;5023215;28;20136;-38
2023/12/04 03:54:54;;;;;;;6.80;4.95;;;;;;;16.36;45.78;101043.16;5025581;28;20491;-38
2023/12/04 03:57:21;;;;;;;8.40;5.32;;;;;;;16.34;44.90;101047.84;5028080;28;20441;-38
2023/12/04 03:59:47;;;;;;;6.65;4.95;;;;;;;16.29;44.60;101041.06;5025973;28;20493;-38
2023/12/04 04:02:14;;;;;;;6.03;4.60;;;;;;;16.27;45.96;101035.00;5023739;28;20556;-38
2023/12/04 04:04:40;;;;;;;6.25;4.68;;;;;;;16.25;44.63;101036.13;5025923;28;20472;-38
2023/12/04 04:07:08;;;;;;;6.30;4.55;;;;;;;16.21;45.08;101032.88;5025470;28;20049;-38
2023/12/04 04:09:35;;;;;;;6.20;4.70;;;;;;;16.20;45.81;101033.00;5023364;28;20101;-38
2023/12/04 04:12:02;;;;;;;7.32;5.10;;;;;;;16.19;45.10;101037.50;5026085;28;20430;-38
2023/12/04 04:14:29;;;;;;;6.95;4.43;;;;;;;16.19;44.79;101026.81;5024664;28;20076;-38
2023/12/04 04:16:56;;;;;;;6.70;4.75;;;;;;;16.21;45.75;101024.03;5042110;28;20052;-38
2023/12/04 04:19:22;;;;;;;6.53;4.88;;;;;;;16.24;46.04;101024.59;5026288;28;20061;-38
2023/12/04 04:21:49;;;;;;;5.65;3.92;;;;;;;16.26;45.32;101029.78;5029470;28;20045;-38
2023/12/04 04:24:16;;;;;;;5.93;4.47;;;;;;;16.28;45.80;101019.78;5025967;28;20052;-38
2023/12/04 04:26:42;;;;;;;5.60;4.53;;;;;;;16.31;45.38;101019.53;5022722;28;20054;-38
2023/12/04 04:29:09;;;;;;;7.70;5.00;;;;;;;16.33;44.98;101012.22;5020644;28;20163;-38
2023/12/04 04:31:36;;;;;;;6.38;4.85;;;;;;;16.35;44.78;101010.22;5019796;28;20385;-38
2023/12/04 04:34:03;;;;;;;6.80;4.80;;;;;;;16.35;44.66;101006.72;5025376;28;20349;-38
2023/12/04 04:36:29;;;;;;;5.25;3.95;;;;;;;16.35;45.10;101004.88;5022523;28;20116;-38
2023/12/04 04:38:56;;;;;;;5.60;4.00;;;;;;;16.35;45.91;100994.19;5021676;28;20049;-38
2023/12/04 04:41:23;;;;;;;5.95;4.47;;;;;;;16.33;45.91;100998.00;5020863;28;20107;-38
2023/12/04 04:43:49;;;;;;;6.00;4.70;;;;;;;16.33;45.03;100995.31;5028178;28;20319;-38
2023/12/04 04:46:16;;;;;;;7.40;4.53;;;;;;;16.30;44.94;100993.75;5032950;28;20111;-38
2023/12/04 04:48:43;;;;;;;6.13;4.35;;;;;;;16.29;45.56;100998.28;5023581;28;20077;-38
2023/12/04 04:51:09;;;;;;;5.60;4.32;;;;;;;16.28;45.50;100995.72;5022545;28;20572;-38
2023/12/04 04:53:36;;;;;;;5.43;4.30;;;;;;;16.25;44.79;100999.53;5023685;28;20381;-38
2023/12/04 04:56:03;;;;;;;6.75;4.35;;;;;;;16.24;44.77;100988.94;5028799;28;20049;-38
2023/12/04 04:58:29;;;;;;;4.93;3.97;;;;;;;16.23;45.33;100988.09;5029706;28;20111;-38
2023/12/04 05:00:56;;;;;;;5.45;4.38;;;;;;;16.22;44.52;100981.06;5025595;28;20108;-38
2023/12/04 05:03:22;;;;;;;6.70;4.60;;;;;;;16.23;44.90;100990.78;5027982;28;20184;-38
2023/12/04 05:05:51;;;;;;;5.65;4.35;;;;;;;16.22;45.33;100982.91;5028971;28;20053;-38
2023/12/04 05:08:17;;;;;;;10.50;4.68;;;;;;;16.19;44.68;100980.50;5027287;28;20048;-38
2023/12/04 05:10:44;;;;;;;13.05;5.20;;;;;;;16.18;45.64;100982.34;5028296;28;20041;-38
2023/12/04 05:13:10;;;;;;;12.77;6.10;;;;;;;16.20;44.79;100982.19;5028395;28;20045;-38
2023/12/04 05:15:37;;;;;;;14.15;5.70;;;;;;;16.23;45.71;100973.91;5037077;28;20054;-37
2023/12/04 05:18:04;;;;;;;11.65;6.35;;;;;;;16.28;45.48;100977.88;5029299;28;20107;-37
2023/12/04 05:20:31;;;;;;;15.65;7.90;;;;;;;16.35;45.34;100970.09;5029358;28;20050;-37
2023/12/04 05:22:57;;;;;;;12.82;7.97;;;;;;;16.43;44.93;100977.44;5022963;28;20391;-38
2023/12/04 05:25:24;;;;;;;17.85;8.77;;;;;;;16.50;44.32;100960.69;5023972;28;20060;-38
2023/12/04 05:27:57;;;;;;;17.30;10.98;;;;;;;16.58;44.37;100953.78;5021253;28;20050;-37
2023/12/04 05:30:23;;;;;;;17.35;10.60;;;;;;;16.63;44.33;100940.81;5039447;28;20381;-38
2023/12/04 05:32:50;;;;;;;21.25;12.13;;;;;;;16.66;44.37;100946.75;5025453;28;20107;-37
2023/12/04 05:35:17;;;;;;;18.40;10.85;;;;;;;16.67;44.69;100940.41;5024854;28;20072;-37
2023/12/04 05:37:45;;;;;;;19.13;11.32;;;;;;;16.68;44.29;100930.53;5022366;28;20386;-38
2023/12/04 05:40:11;;;;;;;19.27;12.00;;;;;;;16.67;44.07;100936.88;5021644;28;20049;-38
2023/12/04 05:42:38;;;;;;;23.42;11.45;;;;;;;16.63;44.22;100930.97;5025012;28;20049;-37
2023/12/04 05:45:07;;;;;;;19.42;11.77;;;;;;;16.59;44.00;100926.88;5026149;28;20067;-37
2023/12/04 05:47:34;;;;;;;19.90;12.27;;;;;;;16.56;44.33;100926.31;5028238;28;20112;-38
2023/12/04 05:50:01;;;;;;;20.50;11.82;;;;;;;16.52;44.96;100925.75;5028007;28;20049;-38
2023/12/04 05:52:28;;;;;;;18.08;11.15;;;;;;;16.47;44.88;100928.00;5022211;28;20057;-38
2023/12/04 05:54:55;;;;;;;17.08;10.90;;;;;;;16.40;44.33;100922.41;5027880;28;20128;-38
2023/12/04 05:57:21;;;;;;;22.35;10.88;;;;;;;16.35;44.43;100921.13;5026419;28;20084;-38
2023/12/04 05:59:48;;;;;;;17.80;10.35;;;;;;;16.29;43.93;100915.34;5022949;28;20053;-38
2023/12/04 06:02:15;;;;;;;17.25;10.80;;;;;;;16.26;43.51;100917.47;5022537;28;20099;-38
2023/12/04 06:04:42;;;;;;;17.45;10.57;;;;;;;16.21;43.89;100909.03;5023990;28;20132;-38
2023/12/04 06:07:09;;;;;;;16.05;10.02;;;;;;;16.18;44.23;100906.63;5027516;28;20144;-38
2023/12/04 06:09:38;;;;;;;15.52;9.38;;;;;;;16.15;43.92;100904.22;5020701;28;20064;-38
2023/12/04 06:12:08;;;;;;;15.02;9.80;;;;;;;16.12;44.41;100908.03;5024545;28;20073;-38
2023/12/04 06:14:35;;;;;;;17.17;10.15;;;;;;;16.10;44.46;100903.81;5024779;28;20054;-38
2023/12/04 06:17:02;;;;;;;12.65;8.63;;;;;;;16.06;44.26;100903.22;5020479;28;20354;-38
2023/12/04 06:19:29;;;;;;;16.98;10.43;;;;;;;16.04;43.58;100899.88;5025107;28;20057;-38
2023/12/04 06:21:56;;;;;;;11.57;8.30;;;;;;;15.99;43.64;100897.59;5027449;28;20099;-38
2023/12/04 06:24:23;;;;;;;13.95;8.77;;;;;;;15.99;43.82;100905.59;5026700;28;20100;-38
2023/12/04 06:26:50;;;;;;;15.60;9.18;;;;;;;15.95;43.44;100890.81;5025456;28;20046;-38
2023/12/04 06:29:17;;;;;;;13.27;8.65;;;;;;;15.93;43.52;100886.63;5020023;28;20108;-38
2023/12/04 06:31:44;;;;;;;13.57;8.55;;;;;;;15.91;43.53;100888.56;5020752;28;20500;-38
2023/12/04 06:34:11;;;;;;;12.55;8.75;;;;;;;15.90;43.29;100877.03;5026790;28;20143;-37
2023/12/04 06:36:40;;;;;;;12.07;8.75;;;;;;;15.92;44.04;100882.25;5025077;28;20045;-37
2023/12/04 06:39:11;;;;;;;12.77;8.63;;;;;;;15.94;43.71;100890.97;5023372;28;20052;-37
2023/12/04 06:41:42;;;;;;;11.90;8.60;;;;;;;15.99;43.46;100886.91;5024239;28;20115;-38
2023/12/04 06:44:09;;;;;;;12.65;8.13;;;;;;;16.06;43.79;100881.84;5026676;28;20124;-37
2023/12/04 06:46:37;;;;;;;13.95;9.05;;;;;;;16.15;43.37;100880.16;5025628;28;20661;-37
2023/12/04 06:49:08;;;;;;;12.20;8.38;;;;;;;16.24;43.61;100876.63;5026217;28;20045;-38
2023/12/04 06:51:35;;;;;;;12.65;7.57;;;;;;;16.33;43.78;100875.81;5022144;28;20619;-38
2023/12/04 06:54:02;;;;;;;12.35;8.63;;;;;;;16.39;42.78;100861.84;5021938;28;20055;-37
2023/12/04 06:56:28;;;;;;;10.98;7.75;;;;;;;16.45;43.36;100865.81;5025387;28;20141;-38
2023/12/04 06:58:55;;;;;;;11.20;8.13;;;;;;;16.50;42.57;100868.88;5021333;28;20057;-37
2023/12/04 07:01:22;;;;;;;11.88;8.00;;;;;;;16.53;42.65;100868.59;5021831;28;20666;-37
2023/12/04 07:03:49;;;;;;;12.95;9.05;;;;;;;16.52;42.92;100857.06;5025788;28;20049;-37
2023/12/04 07:06:16;;;;;;;11.73;7.78;;;;;;;16.50;43.21;100855.50;5030803;28;20064;-38
2023/12/04 07:08:43;;;;;;;12.23;8.30;;;;;;;16.48;43.33;100849.44;5027878;28;20053;-38
2023/12/04 07:11:09;;;;;;;12.00;7.72;;;;;;;16.47;42.88;100853.09;5025453;28;20041;-37
2023/12/04 07:13:36;;;;;;;9.55;6.95;;;;;;;16.48;42.93;100854.78;5018101;28;20053;-38
2023/12/04 07:16:03;;;;;;;11.90;7.75;;;;;;;16.50;43.24;100861.69;5024669;28;20166;-37
2023/12/04 07:18:29;;;;;;;10.68;7.20;;;;;;;16.54;43.55;100857.75;5028020;28;20073;-38
2023/12/04 07:20:56;;;;;;;10.20;6.85;;;;;;;16.62;43.48;100854.34;5023706;28;20046;-37
2023/12/04 07:23:23;;;;;;;10.00;7.10;;;;;;;16.69;42.75;100841.25;5027624;28;20440;-37
2023/12/04 07:25:53;;;;;;;11.73;7.05;;;;;;;16.76;43.22;100853.06;5020906;28;20455;-38
2023/12/04 07:28:20;;;;;;;10.27;7.00;;;;;;;16.84;43.62;100845.16;5018752;28;20056;-37
2023/12/04 07:30:46;;;;;;;9.43;6.25;;;;;;;16.91;42.89;100850.78;5026945;28;20445;-38
2023/12/04 07:33:13;;;;;;;11.32;7.35;;;;;;;16.98;43.23;100854.56;5021908;28;20048;-37
2023/12/04 07:35:40;;;;;;;10.85;6.57;;;;;;;17.05;43.24;100844.97;5023018;28;20041;-39
2023/12/04 07:38:06;;;;;;;10.30;6.63;;;;;;;17.10;43.22;100840.00;5019544;28;20081;-38
2023/12/04 07:40:33;;;;;;;10.07;6.68;;;;;;;17.17;42.87;100837.59;5018700;28;20588;-38
2023/12/04 07:43:00;;;;;;;10.00;6.85;;;;;;;17.21;43.71;100834.47;5017735;28;20381;-38
2023/12/04 07:45:27;;;;;;;9.27;6.10;;;;;;;17.26;43.35;100839.38;5026595;28;20053;-38
2023/12/04 07:47:53;;;;;;;9.70;6.78;;;;;;;17.31;43.37;100847.78;5020904;28;20070;-38
2023/12/04 07:50:20;;;;;;;9.60;6.47;;;;;;;17.36;43.41;100840.16;5022830;28;20049;-38
2023/12/04 07:52:47;;;;;;;9.55;6.38;;;;;;;17.40;43.11;100836.16;5024045;28;20132;-38
2023/12/04 07:55:14;;;;;;;7.53;5.72;;;;;;;17.43;43.36;100832.38;5024028;28;20104;-38
2023/12/04 07:57:40;;;;;;;7.72;5.30;;;;;;;17.47;43.10;100831.06;5025956;28;20053;-37
2023/12/04 08:00:07;;;;;;;8.52;5.90;;;;;;;17.50;43.28;100842.34;5024881;28;20053;-38
2023/12/04 08:02:34;;;;;;;8.30;6.28;;;;;;;17.53;42.73;100833.16;5021885;28;20369;-37
2023/12/04 08:05:01;;;;;;;8.80;5.90;;;;;;;17.56;43.46;100827.47;5022107;28;20046;-38
2023/12/04 08:07:28;;;;;;;8.85;6.03;;;;;;;17.60;43.05;100828.03;5022294;28;20099;-37
2023/12/04 08:09:54;;;;;;;9.35;5.53;;;;;;;17.62;43.44;100834.09;5022595;28;20049;-38
2023/12/04 08:12:21;;;;;;;7.30;5.22;;;;;;;17.65;43.83;100836.47;5020042;28;20138;-37
2023/12/04 08:14:48;;;;;;;7.55;5.68;;;;;;;17.67;43.32;100829.94;5019906;28;20103;-37
2023/12/04 08:17:14;;;;;;;7.68;5.57;;;;;;;17.68;42.83;100831.63;5020720;28;20358;-37
2023/12/04 08:19:41;;;;;;;9.02;6.00;;;;;;;17.69;42.76;100827.97;5023367;28;20049;-38
2023/12/04 08:22:08;;;;;;;8.52;5.40;;;;;;;17.70;42.78;100826.97;5024948;28;20337;-38
2023/12/04 08:24:35;;;;;;;6.68;4.85;;;;;;;17.74;42.73;100832.88;5024507;28;20042;-38
2023/12/04 08:27:02;;;;;;;7.47;5.43;;;;;;;17.75;42.77;100819.34;5041198;28;20057;-37
2023/12/04 08:29:28;;;;;;;7.38;5.10;;;;;;;17.76;42.56;100829.06;5027305;28;20112;-38
2023/12/04 08:31:55;;;;;;;7.70;5.25;;;;;;;17.79;42.47;100825.25;5021274;28;20045;-38
2023/12/04 08:34:21;;;;;;;7.65;4.90;;;;;;;17.80;42.27;100828.75;5023945;28;20061;-37
2023/12/04 08:36:48;;;;;;;6.82;4.90;;;;;;;17.82;42.44;100818.75;5022033;28;20095;-38
2023/12/04 08:39:15;;;;;;;6.72;4.68;;;;;;;17.85;42.64;100815.72;5031785;28;20053;-38
2023/12/04 08:41:47;;;;;;;6.72;4.78;;;;;;;17.87;42.47;100805.72;5025559;28;20097;-38
2023/12/04 08:44:27;;;;;;;7.28;4.78;;;;;;;17.89;42.62;100803.72;5028245;28;20068;-38
2023/12/04 08:46:54;;;;;;;7.03;4.80;;;;;;;17.89;42.62;100799.22;5026931;28;20053;-38
2023/12/04 08:49:21;;;;;;;6.25;4.43;;;;;;;17.91;42.83;100809.78;5028232;28;20133;-37
2023/12/04 08:51:52;;;;;;;6.57;4.22;;;;;;;17.93;42.40;100797.03;5026442;28;20053;-37
2023/12/04 08:54:19;;;;;;;7.07;4.10;;;;;;;17.93;42.99;100789.88;5026122;28;20503;-38
2023/12/04 08:56:45;;;;;;;7.75;4.20;;;;;;;17.93;42.82;100784.50;5025346;28;20620;-38
2023/12/04 08:59:12;;;;;;;6.72;4.32;;;;;;;17.93;42.66;100787.19;5023744;28;20049;-38
2023/12/04 09:01:40;;;;;;;6.32;4.10;;;;;;;17.93;42.28;100784.50;5019503;28;20103;-38
2023/12/04 09:04:08;;;;;;;5.90;4.18;;;;;;;17.91;42.53;100789.16;5023524;28;20049;-38
2023/12/04 09:06:35;;;;;;;7.43;4.00;;;;;;;17.88;42.58;100780.56;5020901;28;20050;-38
2023/12/04 09:09:05;;;;;;;7.47;3.80;;;;;;;17.84;42.14;100787.25;5017893;28;20481;-38
2023/12/04 09:11:43;;;;;;;6.00;4.07;;;;;;;17.79;42.41;100786.88;5023962;28;20081;-38
2023/12/04 09:14:10;;;;;;;5.40;3.87;;;;;;;17.72;42.34;100787.44;5026026;28;20136;-38
2023/12/04 09:16:37;;;;;;;6.63;4.60;;;;;;;17.65;42.28;100785.56;5024007;28;20049;-38
2023/12/04 09:19:04;;;;;;;6.57;4.20;;;;;;;17.58;42.31;100779.94;5023109;28;20049;-38
2023/12/04 09:21:31;;;;;;;6.03;3.90;;;;;;;17.51;42.64;100779.69;5021749;28;20042;-38
2023/12/04 09:23:58;;;;;;;6.78;3.85;;;;;;;17.44;42.43;100772.41;5022614;28;20172;-38
2023/12/04 09:26:24;;;;;;;6.30;3.90;;;;;;;17.37;42.32;100784.75;5021073;28;20107;-38
2023/12/04 09:28:51;;;;;;;6.05;4.15;;;;;;;17.30;42.51;100772.94;5022658;28;20053;-38
2023/12/04 09:31:19;;;;;;;5.72;3.90;;;;;;;17.21;42.25;100772.84;5018383;28;20049;-38
2023/12/04 09:33:47;;;;;;;5.55;3.88;;;;;;;17.16;42.73;100779.63;5028377;28;20087;-38
2023/12/04 09:36:14;;;;;;;5.70;3.70;;;;;;;17.11;42.40;100781.94;5028165;28;20068;-39
2023/12/04 09:38:41;;;;;;;5.63;3.35;;;;;;;17.05;42.62;100777.19;5022911;28;20053;-39
2023/12/04 09:41:10;;;;;;;6.15;4.18;;;;;;;16.99;42.95;100778.59;5022842;28;20088;-38
2023/12/04 09:43:37;;;;;;;4.93;3.50;;;;;;;16.94;42.60;100780.88;5022525;28;20081;-38
2023/12/04 09:46:05;;;;;;;5.70;3.58;;;;;;;16.90;42.81;100783.00;5018965;28;20215;-39
2023/12/04 09:48:33;;;;;;;6.07;3.83;;;;;;;16.85;42.95;100779.09;5025477;28;20058;-38
2023/12/04 09:51:01;;;;;;;5.38;3.42;;;;;;;16.81;42.53;100791.09;5025414;28;20052;-39
2023/12/04 09:53:31;;;;;;;4.72;3.33;;;;;;;16.75;43.08;100789.84;5021376;28;20666;-39
2023/12/04 09:56:02;;;;;;;6.95;3.72;;;;;;;16.71;42.77;100783.91;5019004;28;20403;-38
2023/12/04 09:58:32;;;;;;;6.47;4.28;;;;;;;16.67;42.47;100779.81;5024521;28;20053;-39
2023/12/04 10:01:02;;;;;;;4.63;3.72;;;;;;;16.66;42.51;100777.31;5021210;28;20088;-39
2023/12/04 10:03:29;;;;;;;5.40;3.65;;;;;;;16.67;42.33;100773.63;5029571;28;20045;-39
2023/12/04 10:05:57;;;;;;;5.28;3.60;;;;;;;16.68;43.01;100768.16;5026546;28;20061;-39
2023/12/04 10:08:23;;;;;;;5.57;4.00;;;;;;;16.72;42.49;100764.19;5024152;28;20472;-38
2023/12/04 10:10:50;;;;;;;6.28;3.50;;;;;;;16.81;43.36;100764.34;5022808;28;20054;-38
2023/12/04 10:13:17;;;;;;;4.93;3.13;;;;;;;16.86;43.09;100762.88;5026546;28;20049;-39
2023/12/04 10:16:04;;;;;;;4.63;3.00;;;;;;;16.94;42.77;100762.16;5022816;28;20053;-39
2023/12/04 10:18:31;;;;;;;6.57;3.15;;;;;;;16.98;43.11;100756.34;5022453;28;20049;-39
2023/12/04 10:20:59;;;;;;;6.25;3.60;;;;;;;17.03;43.09;100748.69;5022586;28;20353;-38
2023/12/04 10:23:42;;;;;;;5.78;3.13;;;;;;;17.07;42.72;100738.53;5019815;28;20444;-39
2023/12/04 10:26:09;;;;;;;5.75;3.28;;;;;;;17.11;42.86;100731.88;5024753;28;20057;-39
2023/12/04 10:28:36;;;;;;;5.30;3.45;;;;;;;17.14;43.04;100733.44;5027188;28;20107;-38
2023/12/04 10:31:06;;;;;;;4.63;3.00;;;;;;;17.15;42.87;100722.56;5027577;28;20049;-39
2023/12/04 10:33:33;;;;;;;6.18;3.15;;;;;;;17.16;43.44;100726.91;5025151;28;20326;-39
2023/12/04 10:36:00;;;;;;;7.15;3.38;;;;;;;17.16;42.89;100723.41;5019962;28;20049;-39
2023/12/04 10:38:27;;;;;;;4.45;3.10;;;;;;;17.14;42.97;100712.00;5022889;28;20049;-38
2023/12/04 10:40:54;;;;;;;4.22;3.30;;;;;;;17.10;43.07;100702.59;5019422;28;20269;-39
2023/12/04 10:43:22;;;;;;;6.88;2.58;;;;;;;17.04;42.98;100698.66;5023312;28;20434;-39
2023/12/04 10:45:49;;;;;;;4.70;2.85;;;;;;;17.01;43.24;100690.94;5024851;28;20046;-39
2023/12/04 10:48:18;;;;;;;6.15;3.50;;;;;;;16.98;43.36;100688.56;5023388;28;20059;-38
2023/12/04 10:50:47;;;;;;;5.43;3.20;;;;;;;16.97;43.85;100685.06;5022311;28;20041;-39
2023/12/04 10:53:16;;;;;;;4.97;3.20;;;;;;;16.98;43.45;100686.72;5025081;28;20361;-39
2023/12/04 10:55:46;;;;;;;5.60;2.80;;;;;;;16.99;43.63;100677.69;5022503;28;20049;-39
2023/12/04 10:58:15;;;;;;;4.00;3.05;;;;;;;17.00;43.07;100671.38;5026785;28;20064;-39
2023/12/04 11:00:48;;;;;;;5.03;3.30;;;;;;;16.99;43.52;100668.81;5022308;28;20469;-38
2023/12/04 11:03:32;;;;;;;4.60;2.97;;;;;;;16.97;43.73;100669.00;5028509;28;20045;-39
2023/12/04 11:06:00;;;;;;;;;;;;;;;16.94;44.02;100661.25;5021017;28;20716;-39
2023/12/04 11:08:33;;;;;;;3.72;2.67;;;;;;;16.94;43.46;100661.25;5023357;28;19952;-39
2023/12/04 11:11:08;;;;;;;7.00;3.40;;;;;;;16.90;43.82;100659.88;5024972;28;20737;-39
2023/12/04 11:13:40;;;;;;;5.32;2.88;;;;;;;16.87;43.55;100649.47;5026135;28;20045;-39
2023/12/04 11:16:37;;;;;;;3.70;2.35;;;;;;;16.82;44.29;100645.56;5028700;28;20049;-39
2023/12/04 11:19:29;;;;;;;5.85;2.90;;;;;;;16.78;44.11;100643.19;5028034;28;20140;-39
2023/12/04 11:22:00;;;;;;;5.72;2.92;;;;;;;16.77;43.88;100646.84;5027719;28;20088;-39
2023/12/04 11:24:27;;;;;;;3.40;2.45;;;;;;;16.78;44.01;100634.31;5024982;28;20053;-39